Time;durP1;ratioP1;P1;durP2;ratioP2;P2;SDS_P1;SDS_P2;PMS_P1;PMS_P2;Temp;Humidity;BMP_temperature;BMP_pressure;BME280_temperature;BME280_humidity;BME280_pressure;Samples;Min_cycle;Max_cycle;Signal;HPM_P1;HPM_P2
2023/01/14 00:02:25;;;;;;;2.22;0.90;;;;;;;;;;10439945;28;20049;-75
2023/01/14 00:07:28;;;;;;;3.42;0.38;;;;;;;;;;10439159;28;20047;-75
2023/01/14 00:12:32;;;;;;;0.82;0.47;;;;;;;;;;10443297;28;20041;-75
2023/01/14 00:17:34;;;;;;;2.42;0.60;;;;;;;;;;10440962;28;20045;-77
2023/01/14 00:22:37;;;;;;;0.20;0.20;;;;;;;;;;10441910;28;20037;-74
2023/01/14 00:27:41;;;;;;;1.20;0.70;;;;;;;;;;10440327;28;20396;-76
2023/01/14 00:32:44;;;;;;;0.93;0.40;;;;;;;;;;10440626;28;20036;-76
2023/01/14 00:37:47;;;;;;;0.50;0.38;;;;;;;;;;10440833;28;20041;-75
2023/01/14 00:42:51;;;;;;;0.57;0.30;;;;;;;;;;10435385;28;20438;-75
2023/01/14 00:47:53;;;;;;;2.13;0.80;;;;;;;;;;10442591;28;20136;-74
2023/01/14 00:52:56;;;;;;;2.45;0.85;;;;;;;;;;10443424;28;20036;-75
2023/01/14 00:57:59;;;;;;;1.42;0.60;;;;;;;;;;10440379;28;20083;-76
2023/01/14 01:03:02;;;;;;;0.65;0.30;;;;;;;;;;10438766;28;20131;-74
2023/01/14 01:08:05;;;;;;;2.50;0.60;;;;;;;;;;10439260;28;20489;-77
2023/01/14 01:13:10;;;;;;;1.13;0.38;;;;;;;;;;10439075;28;20121;-75
2023/01/14 01:18:12;;;;;;;;;;;;;;;;;;10436690;28;20148;-73
2023/01/14 01:23:15;;;;;;;0.65;0.28;;;;;;;;;;10436937;28;19925;-74
2023/01/14 01:28:19;;;;;;;3.23;0.67;;;;;;;;;;10438974;28;20068;-74
2023/01/14 01:33:21;;;;;;;3.13;0.70;;;;;;;;;;10438337;28;20110;-75
2023/01/14 01:38:24;;;;;;;1.02;0.50;;;;;;;;;;10436716;28;20438;-74
2023/01/14 01:43:28;;;;;;;0.17;0.13;;;;;;;;;;10438680;28;20110;-74
2023/01/14 01:48:33;;;;;;;0.85;0.43;;;;;;;;;;10445207;28;20045;-74
2023/01/14 01:53:39;;;;;;;1.33;0.38;;;;;;;;;;10444643;28;20498;-74
2023/01/14 01:58:43;;;;;;;2.55;0.50;;;;;;;;;;10444984;28;20426;-74
2023/01/14 02:03:48;;;;;;;3.80;0.60;;;;;;;;;;10444834;28;20611;-75
2023/01/14 02:08:52;;;;;;;1.70;0.68;;;;;;;;;;10440014;28;20040;-75
2023/01/14 02:13:59;;;;;;;0.10;0.10;;;;;;;;;;10436178;28;20276;-75
2023/01/14 02:19:23;;;;;;;1.02;0.60;;;;;;;;;;10439287;28;20299;-75
2023/01/14 02:24:43;;;;;;;2.10;0.77;;;;;;;;;;10436511;28;20060;-75
2023/01/14 02:29:57;;;;;;;3.25;0.38;;;;;;;;;;10438899;28;20036;-76
2023/01/14 02:35:04;;;;;;;3.40;0.65;;;;;;;;;;10438365;28;20095;-76
2023/01/14 02:40:10;;;;;;;2.53;0.75;;;;;;;;;;10430842;28;20053;-76
2023/01/14 02:45:17;;;;;;;2.38;0.50;;;;;;;;;;10435022;28;20045;-74
2023/01/14 02:50:20;;;;;;;1.40;0.20;;;;;;;;;;10440090;28;20048;-75
2023/01/14 02:55:28;;;;;;;2.60;0.50;;;;;;;;;;10436668;28;20143;-74
2023/01/14 03:00:38;;;;;;;1.75;0.50;;;;;;;;;;10436771;28;20037;-75
2023/01/14 03:05:58;;;;;;;7.03;0.50;;;;;;;;;;10434451;28;20048;-75
2023/01/14 03:11:02;;;;;;;4.93;0.40;;;;;;;;;;10430633;28;20047;-75
2023/01/14 03:16:09;;;;;;;1.03;0.70;;;;;;;;;;10437605;28;20071;-76
2023/01/14 03:21:13;;;;;;;4.45;0.80;;;;;;;;;;10435825;28;20118;-75
2023/01/14 03:26:16;;;;;;;2.65;0.55;;;;;;;;;;10433878;28;20123;-75
2023/01/14 03:31:23;;;;;;;0.57;0.13;;;;;;;;;;10437881;28;20057;-75
2023/01/14 03:36:27;;;;;;;3.28;0.60;;;;;;;;;;10435934;28;20440;-75
2023/01/14 03:46:53;;;;;;;2.20;0.50;;;;;;;;;;10432491;28;20064;-74
2023/01/14 03:51:58;;;;;;;1.98;0.28;;;;;;;;;;10438792;28;20036;-75
2023/01/14 03:57:05;;;;;;;1.15;0.45;;;;;;;;;;10435842;28;20076;-74
2023/01/14 04:02:10;;;;;;;3.65;0.30;;;;;;;;;;10436058;28;20045;-75
2023/01/14 04:07:13;;;;;;;0.98;0.40;;;;;;;;;;10444153;28;20398;-75
2023/01/14 04:12:15;;;;;;;5.57;0.60;;;;;;;;;;10436088;28;20560;-75
2023/01/14 04:17:19;;;;;;;0.63;0.10;;;;;;;;;;10437589;28;20037;-74
2023/01/14 04:22:22;;;;;;;5.20;0.50;;;;;;;;;;10439439;28;20049;-74
2023/01/14 04:27:24;;;;;;;0.52;0.22;;;;;;;;;;10442214;28;20059;-75
2023/01/14 04:32:28;;;;;;;4.47;0.60;;;;;;;;;;10436570;28;20049;-74
2023/01/14 04:37:31;;;;;;;6.55;0.88;;;;;;;;;;10437460;28;20048;-75
2023/01/14 04:42:34;;;;;;;3.20;0.80;;;;;;;;;;10441057;28;20073;-75
2023/01/14 04:47:38;;;;;;;0.77;0.30;;;;;;;;;;10444183;28;20033;-74
2023/01/14 04:52:40;;;;;;;;;;;;;;;;;;10443523;28;20037;-74
2023/01/14 04:57:43;;;;;;;0.88;0.32;;;;;;;;;;10442093;28;19946;-75
2023/01/14 05:02:47;;;;;;;0.73;0.32;;;;;;;;;;10444225;28;20037;-75
2023/01/14 05:07:49;;;;;;;0.60;0.40;;;;;;;;;;10438085;28;20029;-75
2023/01/14 05:12:57;;;;;;;1.33;0.52;;;;;;;;;;10446572;28;20045;-75
2023/01/14 05:18:01;;;;;;;1.23;0.38;;;;;;;;;;10446196;28;20045;-75
2023/01/14 05:23:05;;;;;;;1.20;0.30;;;;;;;;;;10437206;28;20090;-75
2023/01/14 05:28:09;;;;;;;0.77;0.50;;;;;;;;;;10438019;28;20439;-75
2023/01/14 05:33:14;;;;;;;6.07;0.88;;;;;;;;;;10438941;28;20045;-75
2023/01/14 05:38:16;;;;;;;3.33;1.10;;;;;;;;;;10441663;28;20375;-75
2023/01/14 05:48:51;;;;;;;2.80;0.30;;;;;;;;;;10341379;28;20052;-75
2023/01/14 05:53:54;;;;;;;3.42;0.57;;;;;;;;;;10441298;28;20045;-75
2023/01/14 05:58:57;;;;;;;0.60;0.35;;;;;;;;;;10435279;28;20376;-74
2023/01/14 06:09:21;;;;;;;0.35;0.20;;;;;;;;;;10437514;28;20044;-75
2023/01/14 06:14:24;;;;;;;3.95;0.70;;;;;;;;;;10440186;28;20613;-75
2023/01/14 06:19:27;;;;;;;1.05;0.40;;;;;;;;;;10437279;28;20106;-77
2023/01/14 06:24:30;;;;;;;0.17;0.17;;;;;;;;;;10436892;28;20037;-74
2023/01/14 06:29:32;;;;;;;1.55;0.50;;;;;;;;;;10433576;28;20430;-76
2023/01/14 06:34:37;;;;;;;2.25;0.77;;;;;;;;;;10432745;28;20106;-74
2023/01/14 06:39:40;;;;;;;10.52;0.88;;;;;;;;;;10434394;28;20053;-75
2023/01/14 06:44:42;;;;;;;1.40;0.50;;;;;;;;;;10435825;28;20098;-74
2023/01/14 06:49:46;;;;;;;0.55;0.30;;;;;;;;;;10430106;28;20044;-75
2023/01/14 06:54:51;;;;;;;3.13;0.70;;;;;;;;;;10440079;28;20501;-74
2023/01/14 06:59:54;;;;;;;0.00;0.00;;;;;;;;;;10438400;28;20037;-74
2023/01/14 07:04:58;;;;;;;7.65;1.02;;;;;;;;;;10433300;28;20486;-74
2023/01/14 07:10:00;;;;;;;4.03;0.50;;;;;;;;;;10436366;28;20038;-75
2023/01/14 07:15:04;;;;;;;1.42;0.80;;;;;;;;;;10433968;28;20050;-76
2023/01/14 07:20:09;;;;;;;4.27;1.13;;;;;;;;;;10437615;28;20106;-73
2023/01/14 07:25:12;;;;;;;2.75;0.73;;;;;;;;;;10436198;28;20041;-75
2023/01/14 07:30:14;;;;;;;1.65;0.20;;;;;;;;;;10432224;28;20045;-74
2023/01/14 07:35:18;;;;;;;1.58;0.68;;;;;;;;;;10442508;28;20056;-75
2023/01/14 07:40:21;;;;;;;;;;;;;;;;;;10434001;28;20037;-75
2023/01/14 07:45:23;;;;;;;2.50;0.70;;;;;;;;;;10432278;28;19974;-75
2023/01/14 07:50:27;;;;;;;2.72;1.20;;;;;;;;;;10440593;28;20102;-76
2023/01/14 07:55:31;;;;;;;3.53;0.88;;;;;;;;;;10441844;28;20478;-76
2023/01/14 08:00:34;;;;;;;5.10;1.05;;;;;;;;;;10446637;28;20506;-76
2023/01/14 08:05:37;;;;;;;6.00;0.90;;;;;;;;;;10441132;28;20041;-76
2023/01/14 08:10:40;;;;;;;2.67;1.00;;;;;;;;;;10438801;28;20049;-75
2023/01/14 08:15:43;;;;;;;3.38;0.75;;;;;;;;;;10437296;28;20579;-76
2023/01/14 08:20:46;;;;;;;5.72;1.55;;;;;;;;;;10443947;28;20041;-75
2023/01/14 08:25:49;;;;;;;1.50;0.95;;;;;;;;;;10438557;28;20047;-75
2023/01/14 08:31:00;;;;;;;4.40;1.52;;;;;;;;;;10442044;28;22259;-74
2023/01/14 08:36:06;;;;;;;5.15;2.08;;;;;;;;;;10442840;28;20048;-75
2023/01/14 08:41:09;;;;;;;3.40;1.73;;;;;;;;;;10443748;28;20090;-75
2023/01/14 08:46:12;;;;;;;4.95;1.80;;;;;;;;;;10436842;28;20041;-76
2023/01/14 08:51:16;;;;;;;2.78;1.42;;;;;;;;;;10446281;28;20453;-76
2023/01/14 08:56:19;;;;;;;6.75;1.88;;;;;;;;;;10450058;28;20044;-75
2023/01/14 09:01:21;;;;;;;3.30;1.53;;;;;;;;;;10445986;28;20029;-74
2023/01/14 09:06:25;;;;;;;4.77;1.80;;;;;;;;;;10441226;28;20498;-75
2023/01/14 09:17:09;;;;;;;5.07;1.73;;;;;;;;;;10442276;28;20509;-77
2023/01/14 09:22:16;;;;;;;4.22;1.55;;;;;;;;;;10441200;28;20447;-77
2023/01/14 09:27:18;;;;;;;1.50;1.23;;;;;;;;;;10438778;28;20045;-79
2023/01/14 09:32:21;;;;;;;3.67;1.40;;;;;;;;;;10436224;28;20044;-76
2023/01/14 09:37:25;;;;;;;4.83;1.70;;;;;;;;;;10440101;28;20121;-77
2023/01/14 09:42:28;;;;;;;1.42;0.90;;;;;;;;;;10435489;28;20128;-75
2023/01/14 09:47:31;;;;;;;4.75;1.30;;;;;;;;;;10439430;28;20057;-75
2023/01/14 09:52:51;;;;;;;2.53;0.87;;;;;;;;;;10435531;28;20033;-74
2023/01/14 09:57:57;;;;;;;3.75;0.90;;;;;;;;;;10435982;28;20056;-76
2023/01/14 10:03:07;;;;;;;1.85;0.82;;;;;;;;;;10437620;28;20088;-76
2023/01/14 10:08:12;;;;;;;2.47;1.08;;;;;;;;;;10431131;28;20037;-76
2023/01/14 10:13:18;;;;;;;2.35;0.90;;;;;;;;;;10439379;28;20047;-75
2023/01/14 10:18:24;;;;;;;2.90;1.02;;;;;;;;;;10439460;28;20094;-75
2023/01/14 10:23:28;;;;;;;1.98;0.60;;;;;;;;;;10437707;28;20049;-76
2023/01/14 10:28:35;;;;;;;2.65;0.73;;;;;;;;;;10434117;28;20132;-76
2023/01/14 10:33:37;;;;;;;;;;;;;;;;;;10423427;28;20037;-74
2023/01/14 10:38:42;;;;;;;0.60;0.60;;;;;;;;;;10432624;28;19932;-76
2023/01/14 10:43:46;;;;;;;2.78;1.20;;;;;;;;;;10440082;28;20048;-76
2023/01/14 10:48:48;;;;;;;;;;;;;;;;;;10442645;28;20457;-77
2023/01/14 10:54:08;;;;;;;3.00;0.70;;;;;;;;;;10435400;28;19931;-78
2023/01/14 10:59:29;;;;;;;1.98;0.80;;;;;;;;;;10447965;28;20152;-76
2023/01/14 11:04:32;;;;;;;2.75;1.17;;;;;;;;;;10439916;28;20501;-76
2023/01/14 11:09:36;;;;;;;1.65;0.70;;;;;;;;;;10437190;28;20231;-76
2023/01/14 11:14:40;;;;;;;1.25;0.80;;;;;;;;;;10450190;28;20094;-76
2023/01/14 11:19:42;;;;;;;;;;;;;;;;;;10438169;28;20058;-75
2023/01/14 11:24:46;;;;;;;3.53;0.60;;;;;;;;;;10435640;28;20806;-75
2023/01/14 11:29:48;;;;;;;;;;;;;;;;;;10440324;28;20078;-74
2023/01/14 11:34:54;;;;;;;1.80;0.70;;;;;;;;;;10440573;28;20172;-76
2023/01/14 11:39:57;;;;;;;2.42;1.00;;;;;;;;;;10437963;28;20037;-77
2023/01/14 11:45:01;;;;;;;0.82;0.63;;;;;;;;;;10440485;28;20037;-75
2023/01/14 11:50:12;;;;;;;0.73;0.57;;;;;;;;;;10442231;28;20033;-76
2023/01/14 11:55:17;;;;;;;1.35;0.60;;;;;;;;;;10443195;28;20065;-76
2023/01/14 12:00:21;;;;;;;0.93;0.50;;;;;;;;;;10444687;28;20059;-77
2023/01/14 12:05:25;;;;;;;4.32;1.38;;;;;;;;;;10443631;28;20221;-77
2023/01/14 12:10:27;;;;;;;;;;;;;;;;;;10443823;28;20040;-77
2023/01/14 12:21:04;;;;;;;1.73;0.77;;;;;;;;;;10444462;28;20048;-75
2023/01/14 12:26:13;;;;;;;0.98;0.70;;;;;;;;;;10437908;28;20040;-76
2023/01/14 12:31:19;;;;;;;2.20;0.75;;;;;;;;;;10440018;28;20060;-76
2023/01/14 12:36:25;;;;;;;1.25;0.75;;;;;;;;;;10440039;28;20445;-77
2023/01/14 12:46:50;;;;;;;1.23;0.70;;;;;;;;;;10444847;28;20048;-75
2023/01/14 12:51:54;;;;;;;3.30;0.98;;;;;;;;;;10435634;28;20037;-75
2023/01/14 12:56:58;;;;;;;2.25;1.30;;;;;;;;;;10437807;28;20422;-75
2023/01/14 13:02:01;;;;;;;1.98;1.35;;;;;;;;;;10439811;28;20037;-76
2023/01/14 13:07:06;;;;;;;1.85;0.88;;;;;;;;;;10443030;28;20075;-72
2023/01/14 13:12:15;;;;;;;1.17;0.50;;;;;;;;;;10440936;28;20033;-77
2023/01/14 13:17:19;;;;;;;2.22;0.60;;;;;;;;;;10443189;28;20398;-75
2023/01/14 13:22:36;;;;;;;0.90;0.40;;;;;;;;;;10436129;28;20036;-75
2023/01/14 13:27:41;;;;;;;1.33;1.00;;;;;;;;;;10443238;28;20061;-76
2023/01/14 13:32:51;;;;;;;2.33;0.80;;;;;;;;;;10444635;28;20418;-76
2023/01/14 13:37:54;;;;;;;1.58;0.90;;;;;;;;;;10443939;28;20044;-77
2023/01/14 13:43:06;;;;;;;1.42;0.63;;;;;;;;;;10440937;28;20041;-77
2023/01/14 13:48:14;;;;;;;0.93;0.73;;;;;;;;;;10435020;28;20480;-75
2023/01/14 13:53:24;;;;;;;2.53;1.02;;;;;;;;;;10441819;28;20555;-75
2023/01/14 13:58:30;;;;;;;1.83;0.90;;;;;;;;;;10433334;28;20045;-76
2023/01/14 14:03:37;;;;;;;2.22;0.98;;;;;;;;;;10436699;28;20130;-75
2023/01/14 14:08:40;;;;;;;3.28;1.00;;;;;;;;;;10435938;28;20059;-75
2023/01/14 14:19:17;;;;;;;;;;;;;;;;;;10368754;28;20840;-76
2023/01/14 14:24:23;;;;;;;3.22;1.35;;;;;;;;;;10437668;28;20024;-75
2023/01/14 14:29:27;;;;;;;1.38;0.77;;;;;;;;;;10446875;28;20414;-76
2023/01/14 14:34:30;;;;;;;2.65;0.70;;;;;;;;;;10446109;28;20128;-76
2023/01/14 14:39:34;;;;;;;1.50;0.90;;;;;;;;;;10445335;28;20066;-76
2023/01/14 14:44:38;;;;;;;1.85;0.90;;;;;;;;;;10438651;28;20044;-75
2023/01/14 14:49:41;;;;;;;0.82;0.80;;;;;;;;;;10439994;28;20048;-76
2023/01/14 14:54:44;;;;;;;1.15;0.85;;;;;;;;;;10430891;28;20038;-76
2023/01/14 14:59:48;;;;;;;0.88;0.40;;;;;;;;;;10437224;28;20060;-75
2023/01/14 15:04:51;;;;;;;3.72;1.35;;;;;;;;;;10437229;28;20041;-75
2023/01/14 15:09:54;;;;;;;2.13;1.10;;;;;;;;;;10440370;28;20050;-76
2023/01/14 15:14:59;;;;;;;0.82;0.73;;;;;;;;;;10440637;28;20545;-76
2023/01/14 15:20:01;;;;;;;1.55;0.75;;;;;;;;;;10448185;28;20052;-75
2023/01/14 15:25:05;;;;;;;1.50;0.77;;;;;;;;;;10438879;28;20041;-75
2023/01/14 15:30:21;;;;;;;1.77;0.90;;;;;;;;;;10444569;28;20128;-75
2023/01/14 15:35:26;;;;;;;0.98;0.63;;;;;;;;;;10441485;28;20040;-76
2023/01/14 15:40:33;;;;;;;1.50;0.88;;;;;;;;;;10440032;28;20431;-77
2023/01/14 15:45:50;;;;;;;1.45;0.93;;;;;;;;;;10436162;28;20383;-75
2023/01/14 15:50:54;;;;;;;1.85;1.23;;;;;;;;;;10478481;28;20041;-76
2023/01/14 15:55:57;;;;;;;;;;;;;;;;;;10476435;28;20045;-76
2023/01/14 16:01:01;;;;;;;3.60;1.65;;;;;;;;;;10470116;28;19921;-77
2023/01/14 16:06:22;;;;;;;2.10;1.13;;;;;;;;;;10469530;28;20478;-75
2023/01/14 16:11:27;;;;;;;1.63;1.05;;;;;;;;;;10473587;28;20109;-77
2023/01/14 16:16:31;;;;;;;2.03;1.35;;;;;;;;;;10485244;28;20048;-78
2023/01/14 16:21:33;;;;;;;1.77;1.05;;;;;;;;;;10485430;28;20049;-76
2023/01/14 16:26:36;;;;;;;1.92;1.08;;;;;;;;;;10467489;28;20053;-76
2023/01/14 16:31:40;;;;;;;1.83;1.10;;;;;;;;;;10485650;28;20045;-75
2023/01/14 16:36:43;;;;;;;2.10;1.20;;;;;;;;;;10488392;28;20105;-76
2023/01/14 16:41:46;;;;;;;4.53;1.60;;;;;;;;;;10480519;28;20098;-76
2023/01/14 16:46:50;;;;;;;2.05;1.17;;;;;;;;;;10473361;28;20497;-76
2023/01/14 16:51:53;;;;;;;4.93;2.00;;;;;;;;;;10478756;28;20050;-76
2023/01/14 16:56:55;;;;;;;5.45;2.55;;;;;;;;;;10477096;28;20180;-76
2023/01/14 17:01:59;;;;;;;3.53;1.63;;;;;;;;;;10482832;28;20044;-76
2023/01/14 17:07:03;;;;;;;;;;;;;;;;;;10483783;28;20109;-77
2023/01/14 17:17:36;;;;;;;4.47;1.80;;;;;;;;;;10442404;28;20088;-75
2023/01/14 17:22:39;;;;;;;;;;;;;;;;;;10483177;28;20503;-75
2023/01/14 17:27:42;;;;;;;3.22;1.30;;;;;;;;;;10489908;28;19920;-76
2023/01/14 17:32:46;;;;;;;6.40;2.60;;;;;;;;;;10530239;28;20078;-76
2023/01/14 17:37:51;;;;;;;3.45;1.88;;;;;;;;;;10523652;28;20044;-75
2023/01/14 17:42:54;;;;;;;;;;;;;;;;;;10537923;28;20125;-75
2023/01/14 17:47:58;;;;;;;2.47;1.38;;;;;;;;;;10523891;28;20560;-74
2023/01/14 17:53:01;;;;;;;6.35;2.42;;;;;;;;;;10517643;28;20140;-74
2023/01/14 17:58:03;;;;;;;2.00;1.33;;;;;;;;;;10521477;28;20472;-73
2023/01/14 18:03:07;;;;;;;5.38;1.55;;;;;;;;;;10526201;28;20051;-74
2023/01/14 18:08:10;;;;;;;3.95;1.30;;;;;;;;;;10531581;28;20041;-76
2023/01/14 18:13:12;;;;;;;5.40;2.00;;;;;;;;;;10520403;28;20043;-75
2023/01/14 18:18:16;;;;;;;8.48;2.58;;;;;;;;;;10520181;28;20455;-77
2023/01/14 18:23:18;;;;;;;3.85;1.38;;;;;;;;;;10528903;28;20067;-76
2023/01/14 18:28:21;;;;;;;4.43;1.90;;;;;;;;;;10521233;28;20113;-77
2023/01/14 18:33:25;;;;;;;3.05;1.55;;;;;;;;;;10512817;28;20037;-76
2023/01/14 18:38:27;;;;;;;2.75;1.70;;;;;;;;;;10515483;28;20075;-74
2023/01/14 18:43:30;;;;;;;2.15;0.98;;;;;;;;;;10514633;28;20043;-74
2023/01/14 18:48:34;;;;;;;4.95;1.70;;;;;;;;;;10518471;28;20051;-74
2023/01/14 18:53:37;;;;;;;4.45;1.73;;;;;;;;;;10516552;28;20047;-75
2023/01/14 18:58:40;;;;;;;0.68;0.68;;;;;;;;;;10524177;28;20086;-75
2023/01/14 19:03:46;;;;;;;0.25;0.25;;;;;;;;;;10517321;28;20055;-76
2023/01/14 19:08:50;;;;;;;2.30;1.08;;;;;;;;;;10519354;28;20116;-76
2023/01/14 19:13:53;;;;;;;;;;;;;;;;;;10523501;28;20043;-76
2023/01/14 19:18:57;;;;;;;2.78;0.65;;;;;;;;;;10526216;28;20186;-75
2023/01/14 19:24:00;;;;;;;0.90;0.70;;;;;;;;;;10524629;28;20024;-76
2023/01/14 19:29:02;;;;;;;1.25;0.82;;;;;;;;;;10522314;28;20047;-76
2023/01/14 19:34:07;;;;;;;1.42;0.77;;;;;;;;;;10526805;28;20024;-77
2023/01/14 19:39:09;;;;;;;2.10;1.02;;;;;;;;;;10520709;28;20123;-75
2023/01/14 19:44:13;;;;;;;1.20;0.65;;;;;;;;;;10524702;28;20032;-76
2023/01/14 19:49:17;;;;;;;1.85;1.02;;;;;;;;;;10520472;28;20129;-76
2023/01/14 19:54:20;;;;;;;;;;;;;;;;;;10533661;28;20044;-74
2023/01/14 19:59:23;;;;;;;4.60;1.67;;;;;;;;;;10535476;28;19935;-76
2023/01/14 20:04:27;;;;;;;8.75;2.40;;;;;;;;;;10532776;28;20048;-78
2023/01/14 20:09:34;;;;;;;2.05;1.10;;;;;;;;;;10532959;28;20396;-76
2023/01/14 20:14:52;;;;;;;6.03;2.17;;;;;;;;;;10529969;28;20040;-76
2023/01/14 20:19:57;;;;;;;5.57;2.22;;;;;;;;;;10529361;28;20126;-75
2023/01/14 20:25:00;;;;;;;7.63;2.20;;;;;;;;;;10532342;28;20040;-75
2023/01/14 20:30:02;;;;;;;4.53;2.10;;;;;;;;;;10530673;28;20047;-75
2023/01/14 20:35:07;;;;;;;4.55;1.60;;;;;;;;;;10534206;28;20634;-75
2023/01/14 20:40:11;;;;;;;4.43;1.58;;;;;;;;;;10534638;28;20374;-77
2023/01/14 20:45:13;;;;;;;4.37;1.40;;;;;;;;;;10513930;28;20067;-76
2023/01/14 20:50:18;;;;;;;5.45;1.90;;;;;;;;;;10537416;28;20036;-74
2023/01/14 20:55:20;;;;;;;2.05;1.38;;;;;;;;;;10528367;28;20398;-75
2023/01/14 21:00:23;;;;;;;2.45;1.58;;;;;;;;;;10528858;28;20040;-75
2023/01/14 21:05:28;;;;;;;4.55;1.92;;;;;;;;;;10528834;28;20131;-76
2023/01/14 21:10:33;;;;;;;2.08;0.70;;;;;;;;;;10526463;28;20055;-75
2023/01/14 21:26:17;;;;;;;2.67;1.38;;;;;;;;;;10526525;28;20044;-76
2023/01/14 21:31:20;;;;;;;3.10;1.27;;;;;;;;;;10523197;28;20295;-74
2023/01/14 21:36:24;;;;;;;3.35;1.20;;;;;;;;;;10525941;28;20036;-74
2023/01/14 21:46:46;;;;;;;3.63;1.77;;;;;;;;;;10522400;28;20048;-75
2023/01/14 21:51:50;;;;;;;3.53;1.60;;;;;;;;;;10520350;28;20132;-74
2023/01/14 21:56:53;;;;;;;2.67;1.40;;;;;;;;;;10521522;28;20036;-74
2023/01/14 22:01:55;;;;;;;3.33;1.60;;;;;;;;;;10518985;28;20043;-75
2023/01/14 22:07:00;;;;;;;2.97;1.20;;;;;;;;;;10523837;28;20075;-75
2023/01/14 22:12:02;;;;;;;3.05;1.02;;;;;;;;;;10525044;28;20455;-75
2023/01/14 22:17:05;;;;;;;2.83;1.40;;;;;;;;;;10515613;28;20044;-75
2023/01/14 22:22:12;;;;;;;2.38;1.10;;;;;;;;;;10518690;28;20173;-74
2023/01/14 22:27:14;;;;;;;1.48;1.02;;;;;;;;;;10522007;28;20082;-74
2023/01/14 22:32:17;;;;;;;1.88;1.05;;;;;;;;;;10525538;28;20045;-74
2023/01/14 22:37:21;;;;;;;2.92;1.20;;;;;;;;;;10521286;28;20328;-75
2023/01/14 22:42:24;;;;;;;1.90;0.65;;;;;;;;;;10516964;28;20210;-74
2023/01/14 22:47:27;;;;;;;1.52;0.68;;;;;;;;;;10524422;28;20079;-75
2023/01/14 22:52:31;;;;;;;0.85;0.43;;;;;;;;;;10515938;28;20481;-76
2023/01/14 22:57:33;;;;;;;3.00;0.65;;;;;;;;;;10502578;28;20040;-75
2023/01/14 23:02:36;;;;;;;2.25;0.73;;;;;;;;;;10516768;28;20101;-76
2023/01/14 23:07:40;;;;;;;2.00;1.20;;;;;;;;;;10517011;28;20044;-76
2023/01/14 23:12:43;;;;;;;;;;;;;;;;;;10523102;28;20562;-75
2023/01/14 23:17:45;;;;;;;1.80;0.90;;;;;;;;;;10518573;28;20319;-75
2023/01/14 23:28:10;;;;;;;0.70;0.60;;;;;;;;;;10526786;28;20044;-76
2023/01/14 23:33:12;;;;;;;1.45;0.40;;;;;;;;;;10527364;28;20341;-76
2023/01/14 23:38:16;;;;;;;2.75;0.82;;;;;;;;;;10535096;28;20052;-76
2023/01/14 23:43:19;;;;;;;0.93;0.40;;;;;;;;;;10525096;28;20031;-76
2023/01/14 23:48:21;;;;;;;1.60;0.50;;;;;;;;;;10523835;28;20064;-76
2023/01/14 23:53:28;;;;;;;0.82;0.40;;;;;;;;;;10522040;28;20032;-76
2023/01/14 23:58:31;;;;;;;1.52;0.80;;;;;;;;;;10524924;28;20051;-75
